Home > Products > Valid Products > TAF

000
FTUS41 KRNK 241730
TAFLWB
TAF
KLWB 241730Z 2418/2518 24005KT P6SM SCT150
     FM250000 VRB03KT P6SM SKC
     FM250800 00000KT 4SM BR SCT002 BKN080
     FM251400 26006KT P6SM BKN050=



000
FTUS41 KRNK 241730
TAFBLF
TAF
KBLF 241730Z 2418/2518 28006KT P6SM SCT180
     FM250000 29003KT P6SM SKC
     FM251000 26003KT 6SM BR SCT002 BKN060
     FM251500 28006KT P6SM BKN040=



000
FTUS41 KRNK 241730
TAFLYH
TAF
KLYH 241730Z 2418/2518 26006KT P6SM SCT200
     FM250000 VRB03KT P6SM SKC
     FM251500 24006KT P6SM SKC=



000
FTUS41 KRNK 241730
TAFDAN
TAF
KDAN 241730Z 2418/2518 25006KT P6SM SCT200
     FM250000 VRB03KT P6SM SKC
     FM251500 25006KT P6SM SKC=



000
FTUS41 KRNK 241730
TAFROA
TAF
KROA 241730Z 2418/2518 26010KT P6SM SCT200
     FM250000 29003KT P6SM SKC
     FM251500 28006KT P6SM SKC=



000
FTUS41 KRNK 241134
TAFDAN
TAF
KDAN 241134Z 2412/2512 32004KT P6SM BKN250=



000
FTUS41 KRNK 241134
TAFROA
TAF
KROA 241134Z 2412/2512 28004KT P6SM BKN250
     FM242100 29008KT P6SM SCT200
     FM250000 31004KT P6SM SKC=



000
FTUS41 KRNK 241134
TAFLYH
TAF
KLYH 241134Z 2412/2512 30005KT P6SM BKN250
     FM242100 24004KT P6SM SKC=



000
FTUS41 KRNK 241134
TAFBLF
TAF
KBLF 241134Z 2412/2512 26005KT P6SM BKN250=



000
FTUS41 KRNK 241134
TAFLWB
TAF
KLWB 241134Z 2412/2512 26004KT P6SM BKN250
     FM250800 28004KT P6SM SCT250=



000
FTUS41 KRNK 240955 AAB
TAFBLF
TAF AMD
KBLF 240955Z 2410/2506 26005KT P6SM BKN250
      TEMPO 2410/2411 4SM BR SCT002
     FM241300 30004KT P6SM BKN250=



000
FTUS41 KRNK 240704 AAA
TAFBLF
TAF AMD
KBLF 240704Z 2407/2506 25007KT 4SM BR SCT002
      TEMPO 2407/2411 1SM BR BKN002
     FM241300 30004KT P6SM BKN250=



000
FTUS41 KRNK 240538
TAFLWB
TAF
KLWB 240538Z 2406/2506 00000KT P6SM SCT025
      TEMPO 2408/2412 2SM BR
     FM241300 28004KT P6SM BKN250=



000
FTUS41 KRNK 240538
TAFBLF
TAF
KBLF 240538Z 2406/2506 25003KT P6SM SKC
     FM241500 29006KT P6SM BKN250=



000
FTUS41 KRNK 240538
TAFDAN
TAF
KDAN 240538Z 2406/2506 32006KT P6SM BKN250=



000
FTUS41 KRNK 240538
TAFLYH
TAF
KLYH 240538Z 2406/2506 00000KT P6SM SKC
     FM241300 25005KT P6SM BKN250
     FM242100 24004KT P6SM SKC=



000
FTUS41 KRNK 240538
TAFROA
TAF
KROA 240538Z 2406/2506 31005KT P6SM BKN250
     FM242100 29008KT P6SM SCT200
     FM250000 31004KT P6SM SKC=



000
FTUS41 KRNK 240158 AAA
TAFBLF
TAF AMD
KBLF 240158Z 2402/2424 27004KT P6SM SCT015 SCT250
      TEMPO 2402/2404 BKN025
     FM241500 29008KT P6SM SCT250=



000
FTUS41 KRNK 240158 AAA
TAFBLF
TAF AMD
KBLF 240158Z 2402/2424 27004KT P6SM SCT015 SCT250
      TEMPO 2402/2404 BKN025
     FM241500 29008KT P6SM SCT250=



000
FTUS41 KRNK 240130 AAA
TAFLWB
TAF AMD
KLWB 240130Z 2402/2424 33004KT P6SM FEW020 SCT250
     FM241400 28004KT P6SM SCT250=



000
FTUS41 KRNK 232323
TAFDAN
TAF
KDAN 232323Z 2400/2424 30008KT P6SM SKC
     FM240100 28004KT P6SM SCT250=



000
FTUS41 KRNK 232323
TAFBLF
TAF
KBLF 232323Z 2400/2424 31006KT P6SM SCT015 OVC018
     FM240400 30003KT P6SM SCT018 SCT250
     FM241500 29007KT P6SM SCT250=



000
FTUS41 KRNK 232323
TAFROA
TAF
KROA 232323Z 2400/2424 30009KT P6SM SKC
     FM240800 31005KT P6SM SCT250=



000
FTUS41 KRNK 232323
TAFLYH
TAF
KLYH 232323Z 2400/2424 34004KT P6SM SKC
     FM241400 24005KT P6SM SCT250=



000
FTUS41 KRNK 232323
TAFLWB
TAF
KLWB 232323Z 2400/2424 29004KT P6SM OVC020
     FM240400 00000KT P6SM FEW018 SCT250
     FM241400 28004KT P6SM SCT250=



000
FTUS41 KRNK 232106 AAA
TAFLWB
TAF AMD
KLWB 232106Z 2321/2418 31008KT P6SM OVC020
     FM240000 VRB03KT P6SM BKN020
     FM240200 00000KT P6SM SKC
     FM240700 00000KT 6SM BR BKN250
     FM241300 29003KT P6SM OVC150=



000
FTUS41 KRNK 232104 AAA
TAFLYH
TAF AMD
KLYH 232104Z 2321/2418 34009KT P6SM SKC
     FM232300 31003KT P6SM SKC
     FM241500 29005KT P6SM BKN250=



000
FTUS41 KRNK 231720
TAFROA
TAF
KROA 231720Z 2318/2418 31012G22KT P6SM SCT040
     FM240100 31006KT P6SM SKC
     FM241000 31003KT P6SM SCT250
     FM241400 29006KT P6SM BKN200=



000
FTUS41 KRNK 231720
TAFLYH
TAF
KLYH 231720Z 2318/2418 32008G18KT P6SM SKC
     FM232300 31003KT P6SM SKC
     FM241500 29005KT P6SM BKN250=



000
FTUS41 KRNK 231720
TAFLWB
TAF
KLWB 231720Z 2318/2418 32006KT P6SM OVC025
     FM232100 33006KT P6SM SCT035
     FM240000 VRB03KT P6SM SKC
     FM240700 00000KT 6SM BR BKN250
     FM241300 29003KT P6SM OVC150=



000
FTUS41 KRNK 231720
TAFDAN
TAF
KDAN 231720Z 2318/2418 34012G22KT P6SM SKC
     FM240100 32006KT P6SM SKC
     FM241500 29005KT P6SM BKN250=



000
FTUS41 KRNK 231720
TAFBLF
TAF
KBLF 231720Z 2318/2418 32008KT P6SM OVC015
     FM232100 31006KT P6SM SCT015 BKN025
     FM240300 30003KT P6SM SCT025
     FM240700 30003KT P6SM BKN250=



000
FTUS41 KRNK 231156 AAA
TAFLWB
TAF AMD
KLWB 231156Z 2312/2412 35005KT P6SM OVC022
      TEMPO 2312/2315 OVC018
     FM231500 32010G18KT P6SM BKN027
     FM232300 31008KT P6SM SCT030
     FM240900 00000KT 1/4SM FG FEW001 SCT250=



000
FTUS41 KRNK 231140
TAFLYH
TAF
KLYH 231140Z 2312/2412 13003KT P6SM SKC
     FM231400 32012G20KT P6SM SKC
     FM231900 31010KT P6SM SKC
     FM240200 VRB02KT P6SM SKC=



000
FTUS41 KRNK 231140
TAFDAN
TAF
KDAN 231140Z 2312/2412 25004KT P6SM SKC
     FM231400 32010G19KT P6SM SKC
     FM231900 32008KT P6SM SKC
     FM240200 32003KT P6SM SKC=



000
FTUS41 KRNK 231140
TAFBLF
TAF
KBLF 231140Z 2312/2412 30005KT P6SM OVC009
     FM231600 32010KT P6SM OVC012
     FM232100 29006KT P6SM SCT022
     FM240900 30003KT P6SM SCT012=



000
FTUS41 KRNK 231140
TAFROA
TAF
KROA 231140Z 2312/2412 30010G21KT P6SM FEW035
     FM231400 31015G25KT P6SM SCT035
     FM231900 31011G19KT P6SM SKC
     FM240200 31006KT P6SM SKC=



000
FTUS41 KRNK 231140
TAFLWB
TAF
KLWB 231140Z 2312/2412 35005KT P6SM OVC020
      TEMPO 2312/2315 OVC018
     FM231500 32010G18KT P6SM BKN027
     FM232300 31008KT P6SM SCT030
     FM240900 00000KT 1/4SM FG FEW001 SCT250=



000
FTUS41 KRNK 230956 AAA
TAFLWB
TAF AMD
KLWB 230956Z 2310/2406 32004KT P6SM -DZ OVC022
     FM231500 32007KT P6SM OVC027
     FM232100 31005KT P6SM BKN030
     FM240300 31002KT P6SM SCT040 BKN100=



000
FTUS41 KRNK 230956 AAA
TAFLWB
TAF AMD
KLWB 230956Z 2310/2406 32004KT P6SM -DZ OVC022
     FM231500 32007KT P6SM OVC027
     FM232100 31005KT P6SM BKN030
     FM240300 31002KT P6SM SCT040 BKN100=



000
FTUS41 KRNK 230701 AAA
TAFBLF
TAF AMD
KBLF 230701Z 2307/2406 33007KT P6SM VCSH OVC005
     FM230800 34007KT P6SM OVC015
      TEMPO 2308/2312 4SM -RA BR OVC004
     FM231500 32010KT P6SM OVC012
     FM232100 29006KT P6SM BKN010
     FM240300 31004KT P6SM SCT020=



000
FTUS41 KRNK 230558 CCA
TAFBLF
TAF COR
KBLF 230558Z 2306/2406 34007KT P6SM OVC015
      TEMPO 2308/2312 4SM -RA BR OVC004
     FM231500 32010KT P6SM OVC012
     FM232100 29006KT P6SM BKN010
     FM240300 31004KT P6SM SCT020=



000
FTUS41 KRNK 230523
TAFDAN
TAF
KDAN 230523Z 2306/2406 26008KT P6SM FEW050
     FM231400 32013G23KT P6SM SKC
     FM240200 32007KT P6SM SKC=



000
FTUS41 KRNK 230523
TAFBLF
TAF
KBLF 230523Z 2306/2406 31008KT P6SM OVC005
      TEMPO 2308/2312 4SM -RA BR OVC004
     FM231500 32010KT P6SM OVC012
     FM232100 29006KT P6SM BKN010
     FM240300 31004KT P6SM SCT020=



000
FTUS41 KRNK 230523
TAFLWB
TAF
KLWB 230523Z 2306/2406 33009KT P6SM -DZ OVC016
     FM231500 32007KT P6SM OVC027
     FM232100 31005KT P6SM BKN030
     FM240300 31002KT P6SM SCT040 BKN100=



000
FTUS41 KRNK 230523
TAFLYH
TAF
KLYH 230523Z 2306/2406 31006G16KT P6SM SCT050
     FM231500 32010G20KT P6SM SKC
     FM240200 00000KT P6SM SKC=



000
FTUS41 KRNK 230523
TAFROA
TAF
KROA 230523Z 2306/2406 32012KT P6SM BKN040
     FM230900 32010KT P6SM SCT040
     FM231400 31015G25KT P6SM SKC
     FM240200 31007KT P6SM SKC=



000
FTUS41 KRNK 230351 AAB
TAFROA
TAF AMD
KROA 230351Z 2304/2324 32012G22KT P6SM SCT040
     FM230700 32010KT P6SM FEW040
     FM231400 31015G25KT P6SM SKC=



000
FTUS41 KRNK 230351 AAB
TAFROA
TAF AMD
KROA 230351Z 2304/2324 32012G22KT P6SM SCT040
     FM230700 32010KT P6SM FEW040
     FM231400 31015G25KT P6SM SKC=



000
FTUS41 KRNK 230244 AAA
TAFLWB
TAF AMD
KLWB 230244Z 2303/2324 34009KT P6SM OVC018
     FM230600 33006KT P6SM OVC020
     FM231500 32007KT P6SM OVC027
     FM232100 31005KT P6SM BKN030=



000
FTUS41 KRNK 230243 AAA
TAFBLF
TAF AMD
KBLF 230243Z 2303/2324 31008KT P6SM OVC005
      TEMPO 2308/2312 4SM BR OVC004
     FM231500 32010KT P6SM OVC012
     FM232100 29006KT P6SM BKN010=



000
FTUS41 KRNK 230241 AAA
TAFROA
TAF AMD
KROA 230241Z 2303/2324 32012KT P6SM SCT045
     FM230300 32010KT P6SM FEW040
     FM231400 31015G25KT P6SM SKC=



000
FTUS41 KRNK 222338
TAFROA
TAF
KROA 222338Z 2300/2324 32012G22KT P6SM SCT045
     FM230300 32010KT P6SM FEW040
     FM231400 31015G25KT P6SM SKC=



000
FTUS41 KRNK 222338
TAFLYH
TAF
KLYH 222338Z 2300/2324 33006KT P6SM SCT050
     FM231500 32010G20KT P6SM SKC=



000
FTUS41 KRNK 222338
TAFBLF
TAF
KBLF 222338Z 2300/2324 32008KT P6SM OVC008
      TEMPO 2308/2312 4SM BR OVC004
     FM231500 32010KT P6SM OVC012
     FM232100 29006KT P6SM BKN010=



000
FTUS41 KRNK 222338
TAFDAN
TAF
KDAN 222338Z 2300/2324 33008KT P6SM FEW050
     FM231400 32013G23KT P6SM SKC=



000
FTUS41 KRNK 222338
TAFLWB
TAF
KLWB 222338Z 2300/2324 34007KT P6SM OVC025
     FM230600 33006KT P6SM OVC020
     FM231500 32007KT P6SM OVC027
     FM232100 31005KT P6SM BKN030=



000
FTUS41 KRNK 221857 AAA
TAFBLF
TAF AMD
KBLF 221857Z 2219/2318 31008KT P6SM OVC015
     FM231300 31006KT P6SM BKN008
     FM231600 31010KT P6SM BKN025=



000
FTUS41 KRNK 221720
TAFDAN
TAF
KDAN 221720Z 2218/2318 35015G25KT P6SM FEW050
     FM230100 32008KT P6SM SKC
     FM231400 32012KT P6SM SKC=



000
FTUS41 KRNK 221720
TAFROA
TAF
KROA 221720Z 2218/2318 32015G25KT P6SM BKN050
     FM230300 32012KT P6SM SCT040
     FM231400 30015KT P6SM SKC=



000
FTUS41 KRNK 221720
TAFLYH
TAF
KLYH 221720Z 2218/2318 34010G20KT P6SM BKN050
     FM230200 32006KT P6SM FEW050
     FM231500 33008KT P6SM SKC=



000
FTUS41 KRNK 221720
TAFBLF
TAF
KBLF 221720Z 2218/2318 31008KT 5SM -RADZ OVC003
     FM230100 32006KT 6SM BR OVC004
     FM231300 31006KT P6SM BKN008
     FM231600 31010KT P6SM BKN025=



000
FTUS41 KRNK 221720
TAFLYH
TAF
KLYH 221720Z 2218/2318 34010G20KT P6SM BKN050
     FM230200 32006KT P6SM FEW050
     FM231500 33008KT P6SM SKC=



000
FTUS41 KRNK 221720
TAFROA
TAF
KROA 221720Z 2218/2318 32015G25KT P6SM BKN050
     FM230300 32012KT P6SM SCT040
     FM231400 30015KT P6SM SKC=



000
FTUS41 KRNK 221720
TAFLWB
TAF
KLWB 221720Z 2218/2318 34008KT P6SM OVC025
     FM230300 32005KT P6SM OVC015
     FM231300 30006KT P6SM OVC025
     FM231600 30008KT P6SM BKN035=



000
FTUS41 KRNK 221720
TAFDAN
TAF
KDAN 221720Z 2218/2318 35015G25KT P6SM FEW050
     FM230100 32008KT P6SM SKC
     FM231400 32012KT P6SM SKC=



000
FTUS41 KRNK 221720
TAFBLF
TAF
KBLF 221720Z 2218/2318 31008KT 5SM -RADZ OVC003
     FM230100 32006KT 6SM BR OVC004
     FM231300 31006KT P6SM BKN008
     FM231600 31010KT P6SM BKN025=



000
FTUS41 KRNK 221720
TAFLWB
TAF
KLWB 221720Z 2218/2318 34008KT P6SM OVC025
     FM230300 32005KT P6SM OVC015
     FM231300 30006KT P6SM OVC025
     FM231600 30008KT P6SM BKN035=



000
FTUS41 KRNK 221518 AAB
TAFBLF
TAF AMD
KBLF 221518Z 2215/2312 31006KT 5SM BR OVC003
     FM221800 32012G18KT P6SM -SHRA BKN015
     FM230300 30006KT P6SM OVC008=



000
FTUS41 KRNK 221306 AAA
TAFLWB
TAF AMD
KLWB 221306Z 2213/2312 31005KT P6SM OVC025
     FM221500 32010G18KT P6SM -SHRA SCT012 OVC025
     FM222000 31012KT P6SM SCT025
     FM230200 31005KT P6SM OVC025=



000
FTUS41 KRNK 221304 AAA
TAFBLF
TAF AMD
KBLF 221304Z 2213/2312 31007KT P6SM OVC005
      TEMPO 2213/2215 4SM BR OVC009
     FM221500 32010G16KT P6SM OVC012
     FM221800 32012G18KT P6SM -SHRA BKN015
     FM230300 30006KT P6SM OVC008=



000
FTUS41 KRNK 221136
TAFROA
TAF
KROA 221136Z 2212/2312 31007KT P6SM FEW040
     FM221400 31020G30KT P6SM SCT040 BKN080
     FM222200 32012G20KT P6SM SCT040
     FM230300 30010KT P6SM FEW040=



000
FTUS41 KRNK 221136
TAFLYH
TAF
KLYH 221136Z 2212/2312 VRB03KT P6SM BKN090
      TEMPO 2212/2214 -SHRA
     FM221400 33012G20KT P6SM SCT080
     FM222300 32008KT P6SM SCT080
     FM230300 32003KT P6SM SCT250=



000
FTUS41 KRNK 221136
TAFBLF
TAF
KBLF 221136Z 2212/2312 31007KT P6SM OVC009
     FM221500 32010G16KT P6SM OVC012
     FM221800 32012G18KT P6SM -SHRA BKN015
     FM230300 30006KT P6SM OVC008=



000
FTUS41 KRNK 221136
TAFLWB
TAF
KLWB 221136Z 2212/2312 00000KT P6SM OVC018
     FM221500 32010G18KT P6SM -SHRA SCT012 OVC025
     FM222000 31012KT P6SM SCT025
     FM230200 31005KT P6SM OVC025=



000
FTUS41 KRNK 221136
TAFDAN
TAF
KDAN 221136Z 2212/2312 30006KT P6SM SKC
     FM221400 32012G21KT P6SM FEW050
     FM222300 32010KT P6SM FEW050
     FM230600 30006KT P6SM SKC=



000
FTUS41 KRNK 220955 AAC
TAFBLF
TAF AMD
KBLF 220955Z 2210/2306 30008KT P6SM -RA BKN008 OVC020
     FM221200 30010G20KT P6SM SCT012 OVC020
     FM222000 30010G20KT P6SM SCT020 OVC040
     FM230100 31008KT P6SM BKN050=



000
FTUS41 KRNK 220955 AAC
TAFBLF
TAF AMD
KBLF 220955Z 2210/2306 30008KT P6SM -RA BKN008 OVC020
     FM221200 30010G20KT P6SM SCT012 OVC020
     FM222000 30010G20KT P6SM SCT020 OVC040
     FM230100 31008KT P6SM BKN050=



000
FTUS41 KRNK 220916 AAB
TAFBLF
TAF AMD
KBLF 220916Z 2209/2306 VRB03KT P6SM -RA SCT009 BKN012 OVC026
     FM221200 30010G20KT P6SM SCT012 OVC020
     FM222000 30010G20KT P6SM SCT020 OVC040
     FM230100 31008KT P6SM BKN050=



000
FTUS41 KRNK 220836 AAA
TAFBLF
TAF AMD
KBLF 220836Z 2209/2306 VRB05KT P6SM VCSH SCT010 OVC020
     FM221200 30010G20KT P6SM SCT012 OVC020
     FM222000 30010G20KT P6SM SCT020 OVC040
     FM230100 31008KT P6SM BKN050=



000
FTUS41 KRNK 220527
TAFROA
TAF
KROA 220527Z 2206/2306 32009KT P6SM VCSH BKN035
     FM220800 31012G20KT P6SM BKN040
     FM221400 31020G30KT P6SM SCT040 BKN080
     FM222200 32012G20KT P6SM SCT040
     FM230300 30009KT P6SM BKN250=



000
FTUS41 KRNK 220527
TAFLWB
TAF
KLWB 220527Z 2206/2306 30008KT P6SM VCSH SCT012 OVC022
     FM220900 31006KT P6SM OVC012
     FM221300 31008G18KT P6SM SCT012 OVC025
     FM222100 31007KT P6SM SCT025 OVC040
     FM230200 31005KT P6SM BKN050=



000
FTUS41 KRNK 220527
TAFBLF
TAF
KBLF 220527Z 2206/2306 31008KT P6SM -RA BKN008 OVC015
     FM221200 30010G20KT P6SM SCT012 OVC020
     FM222000 30010G20KT P6SM SCT020 OVC040
     FM230100 31008KT P6SM BKN050=



000
FTUS41 KRNK 220527
TAFDAN
TAF
KDAN 220527Z 2206/2306 28009KT P6SM VCSH OVC060
     FM221300 32012G20KT P6SM SCT030 BKN050
     FM230300 32009KT P6SM SCT250=



000
FTUS41 KRNK 220527
TAFLYH
TAF
KLYH 220527Z 2206/2306 29008KT P6SM -RA OVC050
     FM220800 32005KT P6SM VCSH BKN050
     FM221200 32010G18KT P6SM SCT040 BKN080
     FM222200 32006KT P6SM SCT080
     FM230300 32003KT P6SM SCT250=



000
FTUS41 KRNK 220527
TAFDAN
TAF
KDAN 220527Z 2206/2306 28009KT P6SM VCSH OVC060
     FM221300 32012G20KT P6SM SCT030 BKN050
     FM230300 32009KT P6SM SCT250=



000
FTUS41 KRNK 220527
TAFLYH
TAF
KLYH 220527Z 2206/2306 29008KT P6SM -RA OVC050
     FM220800 32005KT P6SM VCSH BKN050
     FM221200 32010G18KT P6SM SCT040 BKN080
     FM222200 32006KT P6SM SCT080
     FM230300 32003KT P6SM SCT250=



000
FTUS41 KRNK 220527
TAFLWB
TAF
KLWB 220527Z 2206/2306 30008KT P6SM VCSH SCT012 OVC022
     FM220900 31006KT P6SM OVC012
     FM221300 31008G18KT P6SM SCT012 OVC025
     FM222100 31007KT P6SM SCT025 OVC040
     FM230200 31005KT P6SM BKN050=



000
FTUS41 KRNK 220527
TAFROA
TAF
KROA 220527Z 2206/2306 32009KT P6SM VCSH BKN035
     FM220800 31012G20KT P6SM BKN040
     FM221400 31020G30KT P6SM SCT040 BKN080
     FM222200 32012G20KT P6SM SCT040
     FM230300 30009KT P6SM BKN250=



000
FTUS41 KRNK 220527
TAFBLF
TAF
KBLF 220527Z 2206/2306 31008KT P6SM -RA BKN008 OVC015
     FM221200 30010G20KT P6SM SCT012 OVC020
     FM222000 30010G20KT P6SM SCT020 OVC040
     FM230100 31008KT P6SM BKN050=



000
FTUS41 KRNK 220322 AAA
TAFBLF
TAF AMD
KBLF 220322Z 2203/2224 31008G18KT P6SM VCSH BKN009 OVC015
     FM221200 30010G20KT P6SM SCT012 OVC020
     FM222000 30010G20KT P6SM SCT020 OVC040=



000
FTUS41 KRNK 220148 AAA
TAFLWB
TAF AMD
KLWB 220148Z 2202/2224 30005KT P6SM VCSH SCT020 OVC050
      TEMPO 2202/2204 -SHRA OVC020
     FM220400 30008G18KT P6SM VCSH SCT012 OVC020
     FM220900 31006KT P6SM OVC012
     FM221300 31008G15KT P6SM SCT012 OVC025
     FM222100 31006KT P6SM SCT025 OVC040=



000
FTUS41 KRNK 220147 AAA
TAFLYH
TAF AMD
KLYH 220147Z 2202/2224 29006KT P6SM VCSH SCT050 BKN100
     FM220800 32005KT P6SM SCT050 BKN100
     FM221200 32010G18KT P6SM BKN080
     FM222200 32006KT P6SM SCT080=



000
FTUS41 KRNK 220147 AAA
TAFROA
TAF AMD
KROA 220147Z 2202/2224 29007G15KT P6SM VCSH BKN040
     FM220800 31012G20KT P6SM BKN040
     FM221400 31020G30KT P6SM SCT040 BKN080
     FM222200 32012G20KT P6SM SCT040=



000
FTUS41 KRNK 212323
TAFLYH
TAF
KLYH 212323Z 2200/2224 29008G16KT P6SM SCT100 BKN250
     FM220300 32006KT P6SM VCSH SCT050 BKN100
     FM220800 32005KT P6SM SCT050 BKN100
     FM221200 32010G18KT P6SM BKN080
     FM222200 32006KT P6SM SCT080=



000
FTUS41 KRNK 212323
TAFROA
TAF
KROA 212323Z 2200/2224 31015G25KT P6SM SCT060 BKN080
     FM220200 31015G25KT P6SM VCSH BKN050
     FM220800 31012G20KT P6SM BKN040
     FM221400 31020G30KT P6SM SCT040 BKN080
     FM222200 32012G20KT P6SM SCT040=



000
FTUS41 KRNK 212323
TAFBLF
TAF
KBLF 212323Z 2200/2224 31008G15KT P6SM VCSH SCT012 OVC020
      TEMPO 2200/2204 -SHRA BKN012
     FM220400 31008G15KT P6SM VCSH OVC012
     FM221200 30010G20KT P6SM SCT012 OVC020
     FM222000 30010G20KT P6SM SCT020 OVC040=



000
FTUS41 KRNK 212323
TAFLWB
TAF
KLWB 212323Z 2200/2224 30008G18KT P6SM VCSH SCT020 OVC050
      TEMPO 2200/2204 -SHRA OVC020
     FM220400 30008G18KT P6SM VCSH SCT012 OVC020
     FM220900 31006KT P6SM OVC012
     FM221300 31008G15KT P6SM SCT012 OVC025
     FM222100 31006KT P6SM SCT025 OVC040=



000
FTUS41 KRNK 212323
TAFDAN
TAF
KDAN 212323Z 2200/2224 26009KT P6SM SCT060 BKN100
     FM221300 32012G20KT P6SM BKN060=



000
FTUS41 KRNK 212323
TAFLWB
TAF
KLWB 212323Z 2200/2224 30008G18KT P6SM VCSH SCT020 OVC050
      TEMPO 2200/2204 -SHRA OVC020
     FM220400 30008G18KT P6SM VCSH SCT012 OVC020
     FM220900 31006KT P6SM OVC012
     FM221300 31008G15KT P6SM SCT012 OVC025
     FM222100 31006KT P6SM SCT025 OVC040=



000
FTUS41 KRNK 212323
TAFROA
TAF
KROA 212323Z 2200/2224 31015G25KT P6SM SCT060 BKN080
     FM220200 31015G25KT P6SM VCSH BKN050
     FM220800 31012G20KT P6SM BKN040
     FM221400 31020G30KT P6SM SCT040 BKN080
     FM222200 32012G20KT P6SM SCT040=



000
FTUS41 KRNK 212323
TAFBLF
TAF
KBLF 212323Z 2200/2224 31008G15KT P6SM VCSH SCT012 OVC020
      TEMPO 2200/2204 -SHRA BKN012
     FM220400 31008G15KT P6SM VCSH OVC012
     FM221200 30010G20KT P6SM SCT012 OVC020
     FM222000 30010G20KT P6SM SCT020 OVC040=



000
FTUS41 KRNK 212323
TAFDAN
TAF
KDAN 212323Z 2200/2224 26009KT P6SM SCT060 BKN100
     FM221300 32012G20KT P6SM BKN060=



000
FTUS41 KRNK 212323
TAFLYH
TAF
KLYH 212323Z 2200/2224 29008G16KT P6SM SCT100 BKN250
     FM220300 32006KT P6SM VCSH SCT050 BKN100
     FM220800 32005KT P6SM SCT050 BKN100
     FM221200 32010G18KT P6SM BKN080
     FM222200 32006KT P6SM SCT080=



000
FTUS41 KRNK 212055 AAA
TAFROA
TAF AMD
KROA 212055Z 2121/2218 30010G20KT P6SM VCSH SCT030 BKN080
      TEMPO 2121/2123 5SM -SHRA BKN030
     FM220200 29010G20KT P6SM BKN040 OVC090
     FM221400 32015G25KT P6SM BKN050 OVC120=



000
FTUS41 KRNK 212054 AAA
TAFLWB
TAF AMD
KLWB 212054Z 2121/2218 29008KT P6SM VCSH SCT025 BKN035 OVC050
      TEMPO 2121/2124 -SHRA BKN025
     FM220000 29008KT P6SM -SHRA OVC017
     FM221500 32010G18KT P6SM SCT019 OVC030=



000
FTUS41 KRNK 212053 AAA
TAFBLF
TAF AMD
KBLF 212053Z 2121/2218 28010G18KT P6SM VCSH SCT025 BKN035 OVC060
      TEMPO 2121/2123 -SHRA BKN025
     FM220200 30008G16KT P6SM -SHRA SCT007 OVC015=



    US Dept of Commerce
    National Oceanic and Atmospheric Administration
    National Weather Service
    1325 East West Highway
    Silver Spring, MD 20910
    Page Author: NWS Internet Services Team
Disclaimer
Information Quality
Credits
Glossary
Privacy Policy
Freedom of Information Act (FOIA)
About Us
Career Opportunities